sensor_id;sensor_type;location;lat;lon;timestamp;P1;durP1;ratioP1;P2;durP2;ratioP2
23754;SDS011;12057;52.042;6.830;2022-10-31T00:04:39;34.77;;;13.83;;
23754;SDS011;12057;52.042;6.830;2022-10-31T00:09:40;30.70;;;12.73;;
23754;SDS011;12057;52.042;6.830;2022-10-31T00:14:41;35.80;;;13.13;;
23754;SDS011;12057;52.042;6.830;2022-10-31T00:19:41;37.33;;;14.10;;
23754;SDS011;12057;52.042;6.830;2022-10-31T00:24:42;37.83;;;14.20;;
23754;SDS011;12057;52.042;6.830;2022-10-31T00:29:43;30.53;;;13.23;;
23754;SDS011;12057;52.042;6.830;2022-10-31T00:34:44;42.20;;;14.20;;
23754;SDS011;12057;52.042;6.830;2022-10-31T00:39:44;39.53;;;13.77;;
23754;SDS011;12057;52.042;6.830;2022-10-31T00:44:45;45.77;;;15.53;;
23754;SDS011;12057;52.042;6.830;2022-10-31T00:49:46;33.63;;;14.00;;
23754;SDS011;12057;52.042;6.830;2022-10-31T00:54:47;41.33;;;15.83;;
23754;SDS011;12057;52.042;6.830;2022-10-31T00:59:47;37.83;;;16.73;;
23754;SDS011;12057;52.042;6.830;2022-10-31T01:04:48;50.00;;;15.13;;
23754;SDS011;12057;52.042;6.830;2022-10-31T01:09:49;31.60;;;14.50;;
23754;SDS011;12057;52.042;6.830;2022-10-31T01:14:49;38.27;;;14.97;;
23754;SDS011;12057;52.042;6.830;2022-10-31T01:19:50;30.93;;;13.83;;
23754;SDS011;12057;52.042;6.830;2022-10-31T01:24:51;33.90;;;13.77;;
23754;SDS011;12057;52.042;6.830;2022-10-31T01:29:52;35.40;;;13.17;;
23754;SDS011;12057;52.042;6.830;2022-10-31T01:34:53;24.77;;;12.77;;
23754;SDS011;12057;52.042;6.830;2022-10-31T01:39:53;33.07;;;12.50;;
23754;SDS011;12057;52.042;6.830;2022-10-31T01:45:00;30.40;;;13.43;;
23754;SDS011;12057;52.042;6.830;2022-10-31T01:50:04;32.20;;;13.90;;
23754;SDS011;12057;52.042;6.830;2022-10-31T02:00:15;32.78;;;12.55;;
23754;SDS011;12057;52.042;6.830;2022-10-31T02:05:17;38.87;;;13.77;;
23754;SDS011;12057;52.042;6.830;2022-10-31T02:10:21;37.42;;;13.00;;
23754;SDS011;12057;52.042;6.830;2022-10-31T02:15:23;31.50;;;12.70;;
23754;SDS011;12057;52.042;6.830;2022-10-31T02:20:25;35.13;;;13.73;;
23754;SDS011;12057;52.042;6.830;2022-10-31T02:36:41;28.15;;;11.98;;
23754;SDS011;12057;52.042;6.830;2022-10-31T02:47:17;37.60;;;15.05;;
23754;SDS011;12057;52.042;6.830;2022-10-31T02:52:21;36.33;;;15.02;;
23754;SDS011;12057;52.042;6.830;2022-10-31T02:57:27;41.50;;;14.73;;
23754;SDS011;12057;52.042;6.830;2022-10-31T03:18:43;37.72;;;15.38;;
23754;SDS011;12057;52.042;6.830;2022-10-31T03:24:18;40.10;;;15.48;;
23754;SDS011;12057;52.042;6.830;2022-10-31T03:29:22;36.70;;;15.82;;
23754;SDS011;12057;52.042;6.830;2022-10-31T03:34:27;40.90;;;17.27;;
23754;SDS011;12057;52.042;6.830;2022-10-31T03:39:29;38.33;;;16.92;;
23754;SDS011;12057;52.042;6.830;2022-10-31T03:44:32;50.40;;;19.52;;
23754;SDS011;12057;52.042;6.830;2022-10-31T03:49:34;48.20;;;18.25;;
23754;SDS011;12057;52.042;6.830;2022-10-31T03:54:43;41.90;;;18.90;;
23754;SDS011;12057;52.042;6.830;2022-10-31T03:59:58;45.03;;;19.77;;
23754;SDS011;12057;52.042;6.830;2022-10-31T04:05:06;44.00;;;17.60;;
23754;SDS011;12057;52.042;6.830;2022-10-31T04:10:10;40.70;;;19.10;;
23754;SDS011;12057;52.042;6.830;2022-10-31T04:15:13;45.63;;;19.77;;
23754;SDS011;12057;52.042;6.830;2022-10-31T04:20:17;42.72;;;17.83;;
23754;SDS011;12057;52.042;6.830;2022-10-31T04:25:18;37.10;;;17.50;;
23754;SDS011;12057;52.042;6.830;2022-10-31T04:30:19;37.10;;;17.30;;
23754;SDS011;12057;52.042;6.830;2022-10-31T04:35:20;63.47;;;26.90;;
23754;SDS011;12057;52.042;6.830;2022-10-31T04:40:21;66.27;;;31.53;;
23754;SDS011;12057;52.042;6.830;2022-10-31T04:45:22;53.17;;;20.67;;
23754;SDS011;12057;52.042;6.830;2022-10-31T04:50:23;40.53;;;18.97;;
23754;SDS011;12057;52.042;6.830;2022-10-31T04:55:23;51.50;;;19.23;;
23754;SDS011;12057;52.042;6.830;2022-10-31T05:00:24;52.43;;;18.90;;
23754;SDS011;12057;52.042;6.830;2022-10-31T05:05:29;53.53;;;19.90;;
23754;SDS011;12057;52.042;6.830;2022-10-31T05:10:31;44.25;;;18.63;;
23754;SDS011;12057;52.042;6.830;2022-10-31T05:15:32;47.70;;;18.50;;
23754;SDS011;12057;52.042;6.830;2022-10-31T05:20:32;47.57;;;18.77;;
23754;SDS011;12057;52.042;6.830;2022-10-31T05:25:33;47.27;;;18.77;;
23754;SDS011;12057;52.042;6.830;2022-10-31T05:30:34;45.63;;;18.03;;
23754;SDS011;12057;52.042;6.830;2022-10-31T05:35:35;50.35;;;18.05;;
23754;SDS011;12057;52.042;6.830;2022-10-31T05:40:36;40.57;;;17.23;;
23754;SDS011;12057;52.042;6.830;2022-10-31T05:45:37;36.80;;;17.70;;
23754;SDS011;12057;52.042;6.830;2022-10-31T05:50:38;46.20;;;19.50;;
23754;SDS011;12057;52.042;6.830;2022-10-31T05:55:38;56.40;;;20.67;;
23754;SDS011;12057;52.042;6.830;2022-10-31T06:00:40;41.58;;;19.33;;
23754;SDS011;12057;52.042;6.830;2022-10-31T06:05:41;49.63;;;19.33;;
23754;SDS011;12057;52.042;6.830;2022-10-31T06:10:42;37.70;;;17.50;;
23754;SDS011;12057;52.042;6.830;2022-10-31T06:15:43;39.28;;;17.45;;
23754;SDS011;12057;52.042;6.830;2022-10-31T06:20:44;34.93;;;16.23;;
23754;SDS011;12057;52.042;6.830;2022-10-31T06:25:51;43.83;;;17.50;;
23754;SDS011;12057;52.042;6.830;2022-10-31T06:30:52;40.35;;;16.70;;
23754;SDS011;12057;52.042;6.830;2022-10-31T06:35:53;41.67;;;17.20;;
23754;SDS011;12057;52.042;6.830;2022-10-31T06:40:54;36.87;;;17.87;;
23754;SDS011;12057;52.042;6.830;2022-10-31T06:45:55;44.17;;;18.45;;
23754;SDS011;12057;52.042;6.830;2022-10-31T06:50:59;44.63;;;17.57;;
23754;SDS011;12057;52.042;6.830;2022-10-31T06:56:00;40.17;;;16.00;;
23754;SDS011;12057;52.042;6.830;2022-10-31T07:01:01;47.70;;;20.23;;
23754;SDS011;12057;52.042;6.830;2022-10-31T07:06:02;47.00;;;18.50;;
23754;SDS011;12057;52.042;6.830;2022-10-31T07:11:03;48.47;;;20.80;;
23754;SDS011;12057;52.042;6.830;2022-10-31T07:16:04;67.33;;;21.63;;
23754;SDS011;12057;52.042;6.830;2022-10-31T07:21:11;45.83;;;20.17;;
23754;SDS011;12057;52.042;6.830;2022-10-31T07:26:12;51.57;;;20.07;;
23754;SDS011;12057;52.042;6.830;2022-10-31T07:31:13;49.83;;;19.83;;
23754;SDS011;12057;52.042;6.830;2022-10-31T07:36:14;47.60;;;20.63;;
23754;SDS011;12057;52.042;6.830;2022-10-31T07:41:15;50.40;;;20.08;;
23754;SDS011;12057;52.042;6.830;2022-10-31T07:46:16;50.17;;;19.77;;
23754;SDS011;12057;52.042;6.830;2022-10-31T07:51:17;45.40;;;20.90;;
23754;SDS011;12057;52.042;6.830;2022-10-31T07:56:17;50.30;;;21.57;;
23754;SDS011;12057;52.042;6.830;2022-10-31T08:01:18;65.23;;;21.83;;
23754;SDS011;12057;52.042;6.830;2022-10-31T08:06:19;60.20;;;23.20;;
23754;SDS011;12057;52.042;6.830;2022-10-31T08:11:20;55.77;;;23.23;;
23754;SDS011;12057;52.042;6.830;2022-10-31T08:16:20;63.63;;;23.80;;
23754;SDS011;12057;52.042;6.830;2022-10-31T08:21:21;53.73;;;24.33;;
23754;SDS011;12057;52.042;6.830;2022-10-31T08:26:22;54.20;;;22.57;;
23754;SDS011;12057;52.042;6.830;2022-10-31T08:31:23;62.53;;;23.97;;
23754;SDS011;12057;52.042;6.830;2022-10-31T08:36:26;60.08;;;23.92;;
23754;SDS011;12057;52.042;6.830;2022-10-31T08:52:27;46.20;;;22.70;;
23754;SDS011;12057;52.042;6.830;2022-10-31T08:57:30;46.35;;;20.30;;
23754;SDS011;12057;52.042;6.830;2022-10-31T09:02:30;49.63;;;20.97;;
23754;SDS011;12057;52.042;6.830;2022-10-31T09:07:31;55.70;;;20.97;;
23754;SDS011;12057;52.042;6.830;2022-10-31T09:12:32;39.13;;;16.87;;
23754;SDS011;12057;52.042;6.830;2022-10-31T09:17:33;40.00;;;15.40;;
23754;SDS011;12057;52.042;6.830;2022-10-31T09:22:33;40.13;;;13.50;;
23754;SDS011;12057;52.042;6.830;2022-10-31T09:27:34;34.93;;;12.17;;
23754;SDS011;12057;52.042;6.830;2022-10-31T09:32:35;28.80;;;12.37;;
23754;SDS011;12057;52.042;6.830;2022-10-31T09:37:36;30.60;;;10.93;;
23754;SDS011;12057;52.042;6.830;2022-10-31T09:43:00;25.30;;;10.57;;
23754;SDS011;12057;52.042;6.830;2022-10-31T09:58:50;14.18;;;7.22;;
23754;SDS011;12057;52.042;6.830;2022-10-31T10:03:57;15.98;;;5.40;;
23754;SDS011;12057;52.042;6.830;2022-10-31T10:09:05;17.35;;;5.93;;
23754;SDS011;12057;52.042;6.830;2022-10-31T10:24:27;16.23;;;6.50;;
23754;SDS011;12057;52.042;6.830;2022-10-31T10:29:36;18.35;;;7.72;;
23754;SDS011;12057;52.042;6.830;2022-10-31T10:34:45;16.13;;;6.88;;
23754;SDS011;12057;52.042;6.830;2022-10-31T10:39:52;25.63;;;8.50;;
23754;SDS011;12057;52.042;6.830;2022-10-31T10:45:21;24.00;;;8.35;;
23754;SDS011;12057;52.042;6.830;2022-10-31T10:50:42;15.55;;;6.95;;
23754;SDS011;12057;52.042;6.830;2022-10-31T10:55:53;18.77;;;8.20;;
23754;SDS011;12057;52.042;6.830;2022-10-31T11:00:56;26.73;;;9.07;;
23754;SDS011;12057;52.042;6.830;2022-10-31T11:05:57;21.63;;;8.97;;
23754;SDS011;12057;52.042;6.830;2022-10-31T11:16:08;31.52;;;13.13;;
23754;SDS011;12057;52.042;6.830;2022-10-31T11:21:28;38.95;;;15.13;;
23754;SDS011;12057;52.042;6.830;2022-10-31T11:26:33;32.22;;;13.75;;
23754;SDS011;12057;52.042;6.830;2022-10-31T11:31:35;40.03;;;14.40;;
23754;SDS011;12057;52.042;6.830;2022-10-31T11:36:37;38.00;;;13.70;;
23754;SDS011;12057;52.042;6.830;2022-10-31T11:41:39;40.65;;;14.35;;
23754;SDS011;12057;52.042;6.830;2022-10-31T11:46:54;55.42;;;17.55;;
23754;SDS011;12057;52.042;6.830;2022-10-31T11:52:07;41.47;;;16.27;;
23754;SDS011;12057;52.042;6.830;2022-10-31T11:57:25;38.45;;;16.10;;
23754;SDS011;12057;52.042;6.830;2022-10-31T12:02:29;44.72;;;16.75;;
23754;SDS011;12057;52.042;6.830;2022-10-31T12:07:30;40.55;;;16.45;;
23754;SDS011;12057;52.042;6.830;2022-10-31T12:12:37;46.07;;;16.90;;
23754;SDS011;12057;52.042;6.830;2022-10-31T12:17:42;46.10;;;18.67;;
23754;SDS011;12057;52.042;6.830;2022-10-31T12:23:37;54.35;;;19.88;;
23754;SDS011;12057;52.042;6.830;2022-10-31T12:39:35;51.67;;;19.88;;
23754;SDS011;12057;52.042;6.830;2022-10-31T13:00:44;53.83;;;21.45;;
23754;SDS011;12057;52.042;6.830;2022-10-31T13:05:51;55.05;;;22.27;;
23754;SDS011;12057;52.042;6.830;2022-10-31T13:11:11;53.35;;;21.65;;
23754;SDS011;12057;52.042;6.830;2022-10-31T13:16:19;58.60;;;22.27;;
23754;SDS011;12057;52.042;6.830;2022-10-31T13:21:27;61.00;;;22.25;;
23754;SDS011;12057;52.042;6.830;2022-10-31T13:31:42;47.42;;;19.70;;
23754;SDS011;12057;52.042;6.830;2022-10-31T13:37:05;54.70;;;19.98;;
23754;SDS011;12057;52.042;6.830;2022-10-31T13:42:45;51.35;;;19.83;;
23754;SDS011;12057;52.042;6.830;2022-10-31T13:47:55;52.20;;;20.87;;
23754;SDS011;12057;52.042;6.830;2022-10-31T13:53:42;52.90;;;21.15;;
23754;SDS011;12057;52.042;6.830;2022-10-31T13:58:35;66.63;;;22.27;;
23754;SDS011;12057;52.042;6.830;2022-10-31T14:03:38;66.57;;;24.02;;
23754;SDS011;12057;52.042;6.830;2022-10-31T14:08:41;55.42;;;23.20;;
23754;SDS011;12057;52.042;6.830;2022-10-31T14:13:51;64.43;;;24.87;;
23754;SDS011;12057;52.042;6.830;2022-10-31T14:19:03;61.27;;;22.63;;
23754;SDS011;12057;52.042;6.830;2022-10-31T14:24:13;56.42;;;23.40;;
23754;SDS011;12057;52.042;6.830;2022-10-31T14:29:30;56.25;;;22.13;;
23754;SDS011;12057;52.042;6.830;2022-10-31T14:34:33;52.80;;;21.63;;
23754;SDS011;12057;52.042;6.830;2022-10-31T14:50:37;66.57;;;24.75;;
23754;SDS011;12057;52.042;6.830;2022-10-31T14:55:55;60.08;;;23.05;;
23754;SDS011;12057;52.042;6.830;2022-10-31T15:00:57;52.38;;;23.98;;
23754;SDS011;12057;52.042;6.830;2022-10-31T15:05:59;58.33;;;23.37;;
23754;SDS011;12057;52.042;6.830;2022-10-31T15:11:13;66.43;;;25.27;;
23754;SDS011;12057;52.042;6.830;2022-10-31T15:16:22;54.42;;;24.38;;
23754;SDS011;12057;52.042;6.830;2022-10-31T15:21:29;59.33;;;25.95;;
23754;SDS011;12057;52.042;6.830;2022-10-31T15:26:35;63.08;;;26.27;;
23754;SDS011;12057;52.042;6.830;2022-10-31T15:31:49;58.90;;;24.13;;
23754;SDS011;12057;52.042;6.830;2022-10-31T15:36:51;66.18;;;23.00;;
23754;SDS011;12057;52.042;6.830;2022-10-31T15:41:56;68.47;;;25.03;;
23754;SDS011;12057;52.042;6.830;2022-10-31T15:46:59;54.20;;;23.10;;
23754;SDS011;12057;52.042;6.830;2022-10-31T15:58:00;63.47;;;24.80;;
23754;SDS011;12057;52.042;6.830;2022-10-31T16:03:22;62.97;;;22.85;;
23754;SDS011;12057;52.042;6.830;2022-10-31T16:13:30;62.30;;;23.35;;
23754;SDS011;12057;52.042;6.830;2022-10-31T16:18:34;62.58;;;23.98;;
23754;SDS011;12057;52.042;6.830;2022-10-31T16:23:38;65.53;;;25.67;;
23754;SDS011;12057;52.042;6.830;2022-10-31T16:28:51;69.28;;;24.90;;
23754;SDS011;12057;52.042;6.830;2022-10-31T16:34:13;75.68;;;25.85;;
23754;SDS011;12057;52.042;6.830;2022-10-31T16:39:17;78.18;;;25.23;;
23754;SDS011;12057;52.042;6.830;2022-10-31T16:44:21;77.30;;;26.57;;
23754;SDS011;12057;52.042;6.830;2022-10-31T16:49:26;76.50;;;25.67;;
23754;SDS011;12057;52.042;6.830;2022-10-31T16:54:28;75.80;;;26.97;;
23754;SDS011;12057;52.042;6.830;2022-10-31T16:59:29;79.90;;;26.35;;
23754;SDS011;12057;52.042;6.830;2022-10-31T17:04:31;77.05;;;27.65;;
23754;SDS011;12057;52.042;6.830;2022-10-31T17:09:32;74.63;;;26.17;;
23754;SDS011;12057;52.042;6.830;2022-10-31T17:14:33;83.23;;;29.97;;
23754;SDS011;12057;52.042;6.830;2022-10-31T17:19:34;83.43;;;30.13;;
23754;SDS011;12057;52.042;6.830;2022-10-31T17:24:35;87.23;;;29.63;;
23754;SDS011;12057;52.042;6.830;2022-10-31T17:29:36;77.67;;;29.87;;
23754;SDS011;12057;52.042;6.830;2022-10-31T17:34:37;79.87;;;28.40;;
23754;SDS011;12057;52.042;6.830;2022-10-31T17:39:37;78.60;;;28.57;;
23754;SDS011;12057;52.042;6.830;2022-10-31T17:44:38;82.30;;;28.60;;
23754;SDS011;12057;52.042;6.830;2022-10-31T17:49:39;81.20;;;28.77;;
23754;SDS011;12057;52.042;6.830;2022-10-31T17:54:40;69.63;;;27.10;;
23754;SDS011;12057;52.042;6.830;2022-10-31T17:59:41;69.77;;;26.27;;
23754;SDS011;12057;52.042;6.830;2022-10-31T18:04:42;79.10;;;29.77;;
23754;SDS011;12057;52.042;6.830;2022-10-31T18:09:43;73.93;;;26.47;;
23754;SDS011;12057;52.042;6.830;2022-10-31T18:14:45;55.80;;;25.10;;
23754;SDS011;12057;52.042;6.830;2022-10-31T18:19:46;58.73;;;25.03;;
23754;SDS011;12057;52.042;6.830;2022-10-31T18:24:47;65.97;;;25.13;;
23754;SDS011;12057;52.042;6.830;2022-10-31T18:29:48;61.07;;;25.33;;
23754;SDS011;12057;52.042;6.830;2022-10-31T18:34:48;64.70;;;25.37;;
23754;SDS011;12057;52.042;6.830;2022-10-31T18:39:50;60.72;;;22.75;;
23754;SDS011;12057;52.042;6.830;2022-10-31T18:44:51;73.23;;;29.03;;
23754;SDS011;12057;52.042;6.830;2022-10-31T18:49:52;65.37;;;24.10;;
23754;SDS011;12057;52.042;6.830;2022-10-31T18:54:53;59.03;;;21.73;;
23754;SDS011;12057;52.042;6.830;2022-10-31T18:59:53;54.43;;;22.03;;
23754;SDS011;12057;52.042;6.830;2022-10-31T19:04:54;56.77;;;21.50;;
23754;SDS011;12057;52.042;6.830;2022-10-31T19:09:55;60.17;;;20.93;;
23754;SDS011;12057;52.042;6.830;2022-10-31T19:14:56;44.23;;;20.03;;
23754;SDS011;12057;52.042;6.830;2022-10-31T19:19:56;47.13;;;18.53;;
23754;SDS011;12057;52.042;6.830;2022-10-31T19:24:57;43.67;;;19.37;;
23754;SDS011;12057;52.042;6.830;2022-10-31T19:29:58;48.23;;;18.63;;
23754;SDS011;12057;52.042;6.830;2022-10-31T19:40:02;48.28;;;18.05;;
23754;SDS011;12057;52.042;6.830;2022-10-31T19:45:04;46.08;;;17.10;;
23754;SDS011;12057;52.042;6.830;2022-10-31T19:50:06;45.15;;;16.25;;
23754;SDS011;12057;52.042;6.830;2022-10-31T19:55:07;46.20;;;17.55;;
23754;SDS011;12057;52.042;6.830;2022-10-31T20:00:09;32.87;;;14.20;;
23754;SDS011;12057;52.042;6.830;2022-10-31T20:05:10;43.53;;;16.40;;
23754;SDS011;12057;52.042;6.830;2022-10-31T20:10:11;46.97;;;13.70;;
23754;SDS011;12057;52.042;6.830;2022-10-31T20:15:11;40.63;;;14.53;;
23754;SDS011;12057;52.042;6.830;2022-10-31T20:20:12;39.37;;;13.97;;
23754;SDS011;12057;52.042;6.830;2022-10-31T20:25:13;33.40;;;13.77;;
23754;SDS011;12057;52.042;6.830;2022-10-31T20:30:14;37.87;;;12.23;;
23754;SDS011;12057;52.042;6.830;2022-10-31T20:35:15;27.93;;;11.57;;
23754;SDS011;12057;52.042;6.830;2022-10-31T20:40:16;34.70;;;11.38;;
23754;SDS011;12057;52.042;6.830;2022-10-31T20:45:17;39.23;;;11.13;;
23754;SDS011;12057;52.042;6.830;2022-10-31T20:50:18;26.90;;;10.70;;
23754;SDS011;12057;52.042;6.830;2022-10-31T20:55:19;31.47;;;10.53;;
23754;SDS011;12057;52.042;6.830;2022-10-31T21:00:20;35.90;;;10.87;;
23754;SDS011;12057;52.042;6.830;2022-10-31T21:05:21;46.33;;;11.83;;
23754;SDS011;12057;52.042;6.830;2022-10-31T21:10:21;37.80;;;10.67;;
23754;SDS011;12057;52.042;6.830;2022-10-31T21:15:22;25.00;;;9.97;;
23754;SDS011;12057;52.042;6.830;2022-10-31T21:20:23;28.77;;;9.13;;
23754;SDS011;12057;52.042;6.830;2022-10-31T21:25:24;30.20;;;9.20;;
23754;SDS011;12057;52.042;6.830;2022-10-31T21:30:24;33.50;;;10.00;;
23754;SDS011;12057;52.042;6.830;2022-10-31T21:35:25;36.23;;;11.77;;
23754;SDS011;12057;52.042;6.830;2022-10-31T21:40:26;22.73;;;8.87;;
23754;SDS011;12057;52.042;6.830;2022-10-31T21:45:27;27.90;;;9.65;;
23754;SDS011;12057;52.042;6.830;2022-10-31T21:50:28;30.70;;;8.80;;
23754;SDS011;12057;52.042;6.830;2022-10-31T21:55:29;35.43;;;10.40;;
23754;SDS011;12057;52.042;6.830;2022-10-31T22:00:30;19.67;;;7.90;;
23754;SDS011;12057;52.042;6.830;2022-10-31T22:05:32;24.60;;;8.07;;
23754;SDS011;12057;52.042;6.830;2022-10-31T22:10:33;18.33;;;7.82;;
23754;SDS011;12057;52.042;6.830;2022-10-31T22:15:34;20.50;;;7.53;;
23754;SDS011;12057;52.042;6.830;2022-10-31T22:20:35;31.00;;;6.90;;
23754;SDS011;12057;52.042;6.830;2022-10-31T22:25:36;20.00;;;6.77;;
23754;SDS011;12057;52.042;6.830;2022-10-31T22:30:37;39.00;;;7.13;;
23754;SDS011;12057;52.042;6.830;2022-10-31T22:35:37;19.00;;;7.47;;
23754;SDS011;12057;52.042;6.830;2022-10-31T22:40:38;19.17;;;7.67;;
23754;SDS011;12057;52.042;6.830;2022-10-31T22:45:39;29.53;;;7.87;;
23754;SDS011;12057;52.042;6.830;2022-10-31T22:50:40;18.53;;;6.03;;
23754;SDS011;12057;52.042;6.830;2022-10-31T22:55:40;26.57;;;7.17;;
23754;SDS011;12057;52.042;6.830;2022-10-31T23:00:41;25.57;;;7.03;;
23754;SDS011;12057;52.042;6.830;2022-10-31T23:05:42;28.87;;;7.00;;
23754;SDS011;12057;52.042;6.830;2022-10-31T23:10:43;20.43;;;7.27;;
23754;SDS011;12057;52.042;6.830;2022-10-31T23:15:44;20.60;;;6.33;;
23754;SDS011;12057;52.042;6.830;2022-10-31T23:20:49;23.73;;;7.13;;
23754;SDS011;12057;52.042;6.830;2022-10-31T23:25:53;20.25;;;5.90;;
23754;SDS011;12057;52.042;6.830;2022-10-31T23:31:12;34.78;;;6.22;;
23754;SDS011;12057;52.042;6.830;2022-10-31T23:36:13;24.63;;;7.80;;
23754;SDS011;12057;52.042;6.830;2022-10-31T23:41:14;23.23;;;5.47;;
23754;SDS011;12057;52.042;6.830;2022-10-31T23:46:15;23.83;;;7.20;;
23754;SDS011;12057;52.042;6.830;2022-10-31T23:51:16;27.77;;;7.17;;
23754;SDS011;12057;52.042;6.830;2022-10-31T23:56:16;28.40;;;7.97;;
